createdAt,value
2019-01-02T00:00:04.702Z,23.15
2019-01-02T00:01:14.660Z,23.16
2019-01-02T00:02:23.871Z,23.17
2019-01-02T00:03:33.830Z,23.16
2019-01-02T00:04:43.854Z,23.17
2019-01-02T00:05:54.007Z,23.13
2019-01-02T00:07:03.742Z,23.15
2019-01-02T00:08:13.816Z,23.13
2019-01-02T00:09:23.388Z,23.09
2019-01-02T00:10:33.351Z,23.13
2019-01-02T00:11:42.805Z,23.07
2019-01-02T00:12:52.691Z,23.01
2019-01-02T00:14:02.858Z,23.05
2019-01-02T00:15:12.319Z,23.05
2019-01-02T00:16:21.530Z,23.09
2019-01-02T00:17:31.297Z,23.04
2019-01-02T00:18:41.852Z,23.01
2019-01-02T00:19:51.075Z,23
2019-01-02T00:21:00.845Z,22.98
2019-01-02T00:22:11.385Z,22.97
2019-01-02T00:23:20.602Z,23.02
2019-01-02T00:24:30.084Z,22.97
2019-01-02T00:25:40.024Z,22.94
2019-01-02T00:26:50.664Z,23
2019-01-02T00:28:00.619Z,22.97
2019-01-02T00:29:10.175Z,22.94
2019-01-02T00:30:20.344Z,22.94
2019-01-02T00:31:30.954Z,22.91
2019-01-02T00:32:40.680Z,22.9
2019-01-02T00:33:50.215Z,22.9
2019-01-02T00:35:00.740Z,22.86
2019-01-02T00:36:11.039Z,22.92
2019-01-02T00:37:20.753Z,22.91
2019-01-02T00:38:30.557Z,22.86
2019-01-02T00:39:41.197Z,22.9
2019-01-02T00:40:50.168Z,22.86
2019-01-02T00:42:00.105Z,22.91
2019-01-02T00:43:10.361Z,22.86
2019-01-02T00:44:20.414Z,22.82
2019-01-02T00:45:29.894Z,22.8
2019-01-02T00:46:39.559Z,22.83
2019-01-02T00:47:49.497Z,22.77
2019-01-02T00:48:58.485Z,22.85
2019-01-02T00:50:08.444Z,22.82
2019-01-02T00:51:18.253Z,22.82
2019-01-02T00:52:28.608Z,22.8
2019-01-02T00:53:38.577Z,22.77
2019-01-02T00:54:48.590Z,22.76
2019-01-02T00:55:58.607Z,22.76
2019-01-02T00:57:09.464Z,22.76
2019-01-02T00:58:19.628Z,22.73
2019-01-02T00:59:30.149Z,22.75
2019-01-02T01:00:39.369Z,22.65
2019-01-02T01:01:48.827Z,22.72
2019-01-02T01:02:59.282Z,22.75
2019-01-02T01:04:08.011Z,22.68
2019-01-02T01:05:18.163Z,22.7
2019-01-02T01:06:28.184Z,22.7
2019-01-02T01:07:38.550Z,22.73
2019-01-02T01:08:48.012Z,22.6
2019-01-02T01:09:58.122Z,22.7
2019-01-02T01:11:08.346Z,22.68
2019-01-02T01:12:17.591Z,22.61
2019-01-02T01:13:27.356Z,22.58
2019-01-02T01:14:38.395Z,22.61
2019-01-02T01:15:48.125Z,22.62
2019-01-02T01:16:57.826Z,22.58
2019-01-02T01:18:07.804Z,22.57
2019-01-02T01:19:17.684Z,22.58
2019-01-02T01:20:26.644Z,22.64
2019-01-02T01:21:36.495Z,22.57
2019-01-02T01:22:46.970Z,22.58
2019-01-02T01:23:56.239Z,22.67
2019-01-02T01:25:05.947Z,22.57
2019-01-02T01:26:16.156Z,22.52
2019-01-02T01:27:26.401Z,22.62
2019-01-02T01:28:36.751Z,22.6
2019-01-02T01:29:45.968Z,22.64
2019-01-02T01:30:56.587Z,22.57
2019-01-02T01:32:06.527Z,22.57
2019-01-02T01:33:17.130Z,22.54
2019-01-02T01:34:26.578Z,22.55
2019-01-02T01:35:36.325Z,22.51
2019-01-02T01:36:46.613Z,22.57
2019-01-02T01:37:56.581Z,22.55
2019-01-02T01:39:05.806Z,22.54
2019-01-02T01:40:15.283Z,22.58
2019-01-02T01:41:25.292Z,22.57
2019-01-02T01:42:36.011Z,22.54
2019-01-02T01:43:45.492Z,22.55
2019-01-02T01:44:55.497Z,22.6
2019-01-02T01:46:05.631Z,22.57
2019-01-02T01:47:16.593Z,22.55
2019-01-02T01:48:25.804Z,22.6
2019-01-02T01:49:35.269Z,22.61
2019-01-02T01:50:44.864Z,22.54
2019-01-02T01:51:55.317Z,22.55
2019-01-02T01:53:05.047Z,22.49
2019-01-02T01:54:14.263Z,22.47
2019-01-02T01:55:24.165Z,22.47
2019-01-02T01:56:34.478Z,22.52
2019-01-02T01:57:44.127Z,22.52
2019-01-02T01:58:53.855Z,22.54
2019-01-02T02:00:03.834Z,22.37
2019-01-02T02:01:13.898Z,22.36
2019-01-02T02:02:23.918Z,22.51
2019-01-02T02:03:33.115Z,22.43
2019-01-02T02:04:42.997Z,22.42
2019-01-02T02:05:53.064Z,22.46
2019-01-02T02:07:02.838Z,22.49
2019-01-02T02:08:12.552Z,22.46
2019-01-02T02:09:22.661Z,22.46
2019-01-02T02:10:32.187Z,22.47
2019-01-02T02:11:42.178Z,22.46
2019-01-02T02:12:51.652Z,22.43
2019-01-02T02:14:01.720Z,22.42
2019-01-02T02:15:11.581Z,22.45
2019-01-02T02:16:22.272Z,22.45
2019-01-02T02:17:31.747Z,22.4
2019-01-02T02:18:41.303Z,22.45
2019-01-02T02:19:51.086Z,22.43
2019-01-02T02:21:01.218Z,22.4
2019-01-02T02:22:10.671Z,22.35
2019-01-02T02:23:20.164Z,22.37
2019-01-02T02:24:30.435Z,22.36
2019-01-02T02:25:40.829Z,22.39
2019-01-02T02:26:50.294Z,22.39
2019-01-02T02:27:59.886Z,22.33
2019-01-02T02:29:09.745Z,22.35
2019-01-02T02:30:20.143Z,22.31
2019-01-02T02:31:30.446Z,22.31
2019-01-02T02:32:40.881Z,22.35
2019-01-02T02:33:51.895Z,22.31
2019-01-02T02:35:02.405Z,22.27
2019-01-02T02:36:12.435Z,22.24
2019-01-02T02:37:23.078Z,22.27
2019-01-02T02:38:33.195Z,22.28
2019-01-02T02:39:43.781Z,22.31
2019-01-02T02:40:53.955Z,22.24
2019-01-02T02:42:03.693Z,22.22
2019-01-02T02:43:15.646Z,22.27
2019-01-02T02:44:25.774Z,22.24
2019-01-02T02:45:36.469Z,22.27
2019-01-02T02:46:46.981Z,22.27
2019-01-02T02:47:56.851Z,22.28
2019-01-02T02:49:08.036Z,22.25
2019-01-02T02:50:17.685Z,22.21
2019-01-02T02:51:28.718Z,22.24
2019-01-02T02:52:38.994Z,22.27
2019-01-02T02:53:48.539Z,22.25
2019-01-02T02:54:59.155Z,22.25
2019-01-02T02:56:08.955Z,22.22
2019-01-02T02:57:19.356Z,22.18
2019-01-02T02:58:29.582Z,22.21
2019-01-02T02:59:39.611Z,22.22
2019-01-02T03:00:50.022Z,22.2
2019-01-02T03:02:00.903Z,22.22
2019-01-02T03:03:11.116Z,22.18
2019-01-02T03:04:20.848Z,22.2
2019-01-02T03:05:31.261Z,22.22
2019-01-02T03:06:40.889Z,22.22
2019-01-02T03:07:57.125Z,22.22
2019-01-02T03:09:07.704Z,22.21
2019-01-02T03:10:17.602Z,22.22
2019-01-02T03:11:28.608Z,22.14
2019-01-02T03:12:38.169Z,22.24
2019-01-02T03:13:48.889Z,22.18
2019-01-02T03:14:59.667Z,22.18
2019-01-02T03:16:09.778Z,22.2
2019-01-02T03:17:20.308Z,22.15
2019-01-02T03:18:31.069Z,22.15
2019-01-02T03:19:41.885Z,22.03
2019-01-02T03:20:52.427Z,22.15
2019-01-02T03:22:02.017Z,22.06
2019-01-02T03:23:12.530Z,22.06
2019-01-02T03:24:23.020Z,22.06
2019-01-02T03:25:33.142Z,22.02
2019-01-02T03:26:43.982Z,22.05
2019-01-02T03:27:53.607Z,22.06
2019-01-02T03:29:04.580Z,22.02
2019-01-02T03:30:15.105Z,22.12
2019-01-02T03:31:26.468Z,22.06
2019-01-02T03:32:37.753Z,21.98
2019-01-02T03:33:47.996Z,22.09
2019-01-02T03:34:57.472Z,22.06
2019-01-02T03:36:07.189Z,22
2019-01-02T03:37:16.880Z,22
2019-01-02T03:38:26.598Z,21.94
2019-01-02T03:39:36.024Z,21.96
2019-01-02T03:40:45.492Z,21.98
2019-01-02T03:41:55.178Z,21.96
2019-01-02T03:43:04.848Z,21.94
2019-01-02T03:44:13.773Z,22.03
2019-01-02T03:45:23.215Z,22.05
2019-01-02T03:46:32.672Z,22.02
2019-01-02T03:47:41.875Z,21.99
2019-01-02T03:48:51.341Z,21.96
2019-01-02T03:50:00.530Z,21.96
2019-01-02T03:51:09.998Z,22.02
2019-01-02T03:52:19.182Z,21.94
2019-01-02T03:53:28.120Z,21.99
2019-01-02T03:54:37.573Z,21.91
2019-01-02T03:55:46.769Z,21.94
2019-01-02T03:56:55.702Z,21.98
2019-01-02T03:58:05.174Z,21.92
2019-01-02T03:59:14.607Z,21.98
2019-01-02T04:00:24.027Z,21.99
2019-01-02T04:01:32.985Z,21.9
2019-01-02T04:02:42.417Z,21.98
2019-01-02T04:03:51.348Z,21.88
2019-01-02T04:05:00.786Z,21.9
2019-01-02T04:06:10.217Z,21.88
2019-01-02T04:07:19.649Z,21.94
2019-01-02T04:08:28.839Z,21.98
2019-01-02T04:09:38.524Z,21.96
2019-01-02T04:10:47.455Z,21.9
2019-01-02T04:11:56.887Z,21.86
2019-01-02T04:13:06.314Z,21.86
2019-01-02T04:14:15.763Z,21.86
2019-01-02T04:15:24.448Z,21.91
2019-01-02T04:16:33.690Z,21.91
2019-01-02T04:17:43.118Z,21.83
2019-01-02T04:18:52.575Z,21.92
2019-01-02T04:20:02.003Z,21.91
2019-01-02T04:21:10.749Z,21.92
2019-01-02T04:22:20.172Z,21.9
2019-01-02T04:23:28.869Z,21.91
2019-01-02T04:24:38.295Z,21.86
2019-01-02T04:25:47.732Z,21.84
2019-01-02T04:26:57.146Z,21.8
2019-01-02T04:28:06.319Z,21.91
2019-01-02T04:29:15.745Z,21.84
2019-01-02T04:30:24.949Z,21.9
2019-01-02T04:31:34.643Z,21.88
2019-01-02T04:32:44.145Z,21.83
2019-01-02T04:33:53.612Z,21.86
2019-01-02T04:35:02.551Z,21.8
2019-01-02T04:36:11.990Z,21.82
2019-01-02T04:37:21.157Z,21.84
2019-01-02T04:38:31.094Z,21.83
2019-01-02T04:39:40.541Z,21.84
2019-01-02T04:40:49.467Z,21.84
2019-01-02T04:41:59.159Z,21.77
2019-01-02T04:43:08.355Z,21.84
2019-01-02T04:44:17.793Z,21.75
2019-01-02T04:45:26.730Z,21.74
2019-01-02T04:46:35.904Z,21.84
2019-01-02T04:47:45.085Z,21.75
2019-01-02T04:48:54.762Z,21.83
2019-01-02T04:50:04.210Z,21.83
2019-01-02T04:51:13.164Z,21.77
2019-01-02T04:52:22.618Z,21.77
2019-01-02T04:53:32.296Z,21.75
2019-01-02T04:54:41.224Z,21.8
2019-01-02T04:55:50.657Z,21.82
2019-01-02T04:56:59.843Z,21.8
2019-01-02T04:58:08.767Z,21.79
2019-01-02T04:59:18.454Z,21.72
2019-01-02T05:00:27.887Z,21.8
2019-01-02T05:01:37.320Z,21.77
2019-01-02T05:02:46.825Z,21.79
2019-01-02T05:03:56.011Z,21.77
2019-01-02T05:05:05.447Z,21.72
2019-01-02T05:06:14.640Z,21.77
2019-01-02T05:07:24.563Z,21.8
2019-01-02T05:08:33.508Z,21.69
2019-01-02T05:09:42.982Z,21.75
2019-01-02T05:10:52.199Z,21.72
2019-01-02T05:12:01.376Z,21.72
2019-01-02T05:13:10.815Z,21.72
2019-01-02T05:14:20.746Z,21.71
2019-01-02T05:15:29.926Z,21.74
2019-01-02T05:16:39.372Z,21.68
2019-01-02T05:17:48.799Z,21.74
2019-01-02T05:18:57.991Z,21.75
2019-01-02T05:20:07.178Z,21.74
2019-01-02T05:21:16.359Z,21.77
2019-01-02T05:22:26.057Z,21.71
2019-01-02T05:23:35.777Z,21.65
2019-01-02T05:24:44.706Z,21.62
2019-01-02T05:25:53.897Z,21.67
2019-01-02T05:27:03.623Z,21.65
2019-01-02T05:28:12.810Z,21.65
2019-01-02T05:29:21.744Z,21.65
2019-01-02T05:30:30.663Z,21.71
2019-01-02T05:31:39.862Z,21.75
2019-01-02T05:32:49.059Z,21.67
2019-01-02T05:33:57.981Z,21.65
2019-01-02T05:35:07.185Z,21.71
2019-01-02T05:36:16.617Z,21.62
2019-01-02T05:37:25.812Z,21.69
2019-01-02T05:38:34.762Z,21.62
2019-01-02T05:39:44.463Z,21.67
2019-01-02T05:40:53.908Z,21.64
2019-01-02T05:42:03.625Z,21.64
2019-01-02T05:43:13.047Z,21.62
2019-01-02T05:44:22.476Z,21.62
2019-01-02T05:45:31.674Z,21.64
2019-01-02T05:46:41.095Z,21.71
2019-01-02T05:47:50.541Z,21.64
2019-01-02T05:48:59.739Z,21.68
2019-01-02T05:50:09.435Z,21.61
2019-01-02T05:51:18.641Z,21.67
2019-01-02T05:52:28.593Z,21.67
2019-01-02T05:53:38.028Z,21.61
2019-01-02T05:54:47.215Z,21.62
2019-01-02T05:55:56.659Z,21.58
2019-01-02T05:57:05.846Z,21.59
2019-01-02T05:58:14.808Z,21.68
2019-01-02T05:59:24.262Z,21.61
2019-01-02T06:00:39.652Z,21.61
2019-01-02T06:01:49.261Z,21.58
2019-01-02T06:02:58.719Z,21.56
2019-01-02T06:04:08.171Z,21.56
2019-01-02T06:05:17.370Z,21.59
2019-01-02T06:06:27.050Z,21.59
2019-01-02T06:07:36.495Z,21.59
2019-01-02T06:08:46.164Z,21.54
2019-01-02T06:09:55.354Z,21.58
2019-01-02T06:11:05.374Z,21.59
2019-01-02T06:12:14.570Z,21.54
2019-01-02T06:13:24.234Z,21.54
2019-01-02T06:14:33.435Z,21.54
2019-01-02T06:15:43.477Z,21.54
2019-01-02T06:16:52.673Z,21.54
2019-01-02T06:18:01.351Z,21.58
2019-01-02T06:19:10.787Z,21.5
2019-01-02T06:20:19.957Z,21.58
2019-01-02T06:21:29.387Z,21.56
2019-01-02T06:22:39.100Z,21.56
2019-01-02T06:23:48.795Z,21.59
2019-01-02T06:24:58.224Z,21.49
2019-01-02T06:26:07.948Z,21.56
2019-01-02T06:27:17.370Z,21.49
2019-01-02T06:28:26.824Z,21.62
2019-01-02T06:29:36.000Z,21.49
2019-01-02T06:30:45.196Z,21.62
2019-01-02T06:31:54.893Z,21.5
2019-01-02T06:33:04.588Z,21.47
2019-01-02T06:34:13.782Z,21.54
2019-01-02T06:35:22.952Z,21.5
2019-01-02T06:36:31.868Z,21.52
2019-01-02T06:37:40.813Z,21.52
2019-01-02T06:38:50.267Z,21.52
2019-01-02T06:39:59.210Z,21.46
2019-01-02T06:41:08.391Z,21.52
2019-01-02T06:42:18.067Z,21.53
2019-01-02T06:43:27.755Z,21.49
2019-01-02T06:44:36.675Z,21.37
2019-01-02T06:45:46.368Z,21.52
2019-01-02T06:46:55.555Z,21.38
2019-01-02T06:48:05.228Z,21.44
2019-01-02T06:49:14.665Z,21.43
2019-01-02T06:50:24.135Z,21.44
2019-01-02T06:51:34.073Z,21.43
2019-01-02T06:52:43.044Z,21.43
2019-01-02T06:53:52.218Z,21.43
2019-01-02T06:55:01.648Z,21.4
2019-01-02T06:56:10.613Z,21.4
2019-01-02T06:57:19.787Z,21.42
2019-01-02T06:58:28.703Z,21.42
2019-01-02T06:59:37.649Z,21.34
2019-01-02T07:00:47.088Z,21.46
2019-01-02T07:01:56.335Z,21.42
2019-01-02T07:03:05.518Z,21.4
2019-01-02T07:04:14.958Z,21.46
2019-01-02T07:05:24.631Z,21.47
2019-01-02T07:06:34.329Z,21.34
2019-01-02T07:07:43.509Z,21.42
2019-01-02T07:08:53.185Z,21.37
2019-01-02T07:10:02.886Z,21.37
2019-01-02T07:11:11.813Z,21.38
2019-01-02T07:12:21.242Z,21.38
2019-01-02T07:13:30.692Z,21.32
2019-01-02T07:14:40.378Z,21.37
2019-01-02T07:15:49.547Z,21.35
2019-01-02T07:16:58.726Z,21.44
2019-01-02T07:18:08.154Z,21.37
2019-01-02T07:19:17.591Z,21.4
2019-01-02T07:20:26.542Z,21.4
2019-01-02T07:21:35.725Z,21.35
2019-01-02T07:22:44.908Z,21.35
2019-01-02T07:23:53.829Z,21.35
2019-01-02T07:25:03.514Z,21.35
2019-01-02T07:26:12.954Z,21.43
2019-01-02T07:27:22.389Z,21.35
2019-01-02T07:28:31.871Z,21.4
2019-01-02T07:29:41.303Z,21.32
2019-01-02T07:30:50.775Z,21.37
2019-01-02T07:31:59.895Z,21.32
2019-01-02T07:33:09.321Z,21.34
2019-01-02T07:34:18.244Z,21.37
2019-01-02T07:35:27.452Z,21.37
2019-01-02T07:36:36.883Z,21.28
2019-01-02T07:37:46.066Z,21.35
2019-01-02T07:38:55.262Z,21.31
2019-01-02T07:40:04.210Z,21.31
2019-01-02T07:41:13.902Z,21.28
2019-01-02T07:42:23.102Z,21.28
2019-01-02T07:43:32.279Z,21.31
2019-01-02T07:44:41.275Z,21.34
2019-01-02T07:45:50.257Z,21.31
2019-01-02T07:46:59.438Z,21.32
2019-01-02T07:48:09.373Z,21.27
2019-01-02T07:49:18.801Z,21.28
2019-01-02T07:50:28.006Z,21.28
2019-01-02T07:51:36.960Z,21.34
2019-01-02T07:52:46.147Z,21.32
2019-01-02T07:53:55.331Z,21.31
2019-01-02T07:55:05.823Z,21.34
2019-01-02T07:56:15.295Z,21.22
2019-01-02T07:57:24.984Z,21.28
2019-01-02T07:58:34.411Z,21.28
2019-01-02T07:59:43.342Z,21.28
2019-01-02T08:00:52.779Z,21.22
2019-01-02T08:02:01.735Z,21.24
2019-01-02T08:03:10.933Z,21.31
2019-01-02T08:04:19.878Z,21.22
2019-01-02T08:05:29.082Z,21.31
2019-01-02T08:06:38.274Z,21.25
2019-01-02T08:07:47.957Z,21.28
2019-01-02T08:08:57.141Z,21.24
2019-01-02T08:10:06.860Z,21.25
2019-01-02T08:11:16.565Z,21.24
2019-01-02T08:12:25.497Z,21.27
2019-01-02T08:13:34.924Z,21.24
2019-01-02T08:14:45.918Z,21.17
2019-01-02T08:15:55.338Z,21.24
2019-01-02T08:17:04.763Z,21.27
2019-01-02T08:18:14.448Z,21.28
2019-01-02T08:19:23.867Z,21.21
2019-01-02T08:20:33.554Z,21.21
2019-01-02T08:21:42.511Z,21.27
2019-01-02T08:22:51.950Z,21.19
2019-01-02T08:24:00.896Z,21.27
2019-01-02T08:25:10.578Z,21.28
2019-01-02T08:26:20.017Z,21.22
2019-01-02T08:27:28.968Z,21.21
2019-01-02T08:28:38.399Z,21.27
2019-01-02T08:29:47.586Z,21.27
2019-01-02T08:30:57.286Z,21.22
2019-01-02T08:32:06.723Z,21.22
2019-01-02T08:33:16.183Z,21.19
2019-01-02T08:34:25.642Z,21.22
2019-01-02T08:35:35.085Z,21.21
2019-01-02T08:36:44.773Z,21.24
2019-01-02T08:37:53.961Z,21.22
2019-01-02T08:39:02.964Z,21.21
2019-01-02T08:40:12.396Z,21.24
2019-01-02T08:41:22.086Z,21.24
2019-01-02T08:42:31.518Z,21.25
2019-01-02T08:43:40.697Z,21.27
2019-01-02T08:44:50.132Z,21.25
2019-01-02T08:45:59.305Z,21.22
2019-01-02T08:47:08.239Z,21.22
2019-01-02T08:48:17.413Z,21.24
2019-01-02T08:49:26.640Z,21.27
2019-01-02T08:50:36.067Z,21.25
2019-01-02T08:51:44.987Z,21.24
2019-01-02T08:52:54.923Z,21.12
2019-01-02T08:54:04.114Z,21.13
2019-01-02T08:55:13.800Z,21.13
2019-01-02T08:56:23.281Z,21.22
2019-01-02T08:57:33.219Z,21.19
2019-01-02T08:58:42.412Z,21.17
2019-01-02T08:59:52.083Z,21.16
2019-01-02T09:01:01.519Z,21.19
2019-01-02T09:02:10.933Z,21.12
2019-01-02T09:03:20.604Z,21.16
2019-01-02T09:04:29.294Z,21.14
2019-01-02T09:05:39.002Z,21.21
2019-01-02T09:06:48.436Z,21.12
2019-01-02T09:07:57.378Z,21.17
2019-01-02T09:09:06.573Z,21.17
2019-01-02T09:10:17.465Z,21.14
2019-01-02T09:11:26.891Z,21.16
2019-01-02T09:12:36.071Z,21.19
2019-01-02T09:13:45.254Z,21.19
2019-01-02T09:14:54.706Z,21.19
2019-01-02T09:16:03.619Z,21.19
2019-01-02T09:17:13.065Z,21.24
2019-01-02T09:18:22.260Z,21.14
2019-01-02T09:19:31.224Z,21.19
2019-01-02T09:20:40.727Z,21.17
2019-01-02T09:21:50.188Z,21.14
2019-01-02T09:22:59.134Z,21.13
2019-01-02T09:24:08.340Z,21.12
2019-01-02T09:25:18.044Z,21.13
2019-01-02T09:26:27.473Z,21.14
2019-01-02T09:27:36.651Z,21.12
2019-01-02T09:28:45.833Z,21.21
2019-01-02T09:29:55.268Z,21.14
2019-01-02T09:31:04.216Z,21.17
2019-01-02T09:32:13.400Z,21.16
2019-01-02T09:33:22.584Z,21.14
2019-01-02T09:34:31.999Z,21.12
2019-01-02T09:35:40.928Z,21.14
2019-01-02T09:36:50.451Z,21.13
2019-01-02T09:37:59.412Z,21.12
2019-01-02T09:39:08.590Z,21.14
2019-01-02T09:40:17.756Z,21.1
2019-01-02T09:41:27.441Z,21.14
2019-01-02T09:42:37.329Z,21.14
2019-01-02T09:43:46.272Z,21.13
2019-01-02T09:44:55.996Z,21.16
2019-01-02T09:46:05.451Z,21.13
2019-01-02T09:47:15.158Z,21.16
2019-01-02T09:48:24.698Z,21.14
2019-01-02T09:49:34.127Z,21.13
2019-01-02T09:50:43.574Z,21.13
2019-01-02T09:51:52.764Z,21.16
2019-01-02T09:53:02.238Z,21.12
2019-01-02T09:54:11.679Z,21.13
2019-01-02T09:55:20.858Z,21.16
2019-01-02T09:56:30.582Z,21.1
2019-01-02T09:57:39.771Z,21.09
2019-01-02T09:58:48.934Z,21.14
2019-01-02T09:59:58.384Z,21.07
2019-01-02T10:01:08.076Z,21.13
2019-01-02T10:02:17.283Z,21.06
2019-01-02T10:03:26.469Z,21.1
2019-01-02T10:04:36.154Z,21.1
2019-01-02T10:05:44.867Z,21.09
2019-01-02T10:06:54.300Z,21.09
2019-01-02T10:08:03.768Z,21.13
2019-01-02T10:09:13.458Z,21.13
2019-01-02T10:10:23.957Z,21.12
2019-01-02T10:11:33.645Z,21.14
2019-01-02T10:12:42.838Z,21.12
2019-01-02T10:13:52.263Z,21.12
2019-01-02T10:15:01.444Z,21.21
2019-01-02T10:16:10.373Z,21.06
2019-01-02T10:17:19.563Z,21.07
2019-01-02T10:18:29.259Z,21.16
2019-01-02T10:19:38.202Z,21.13
2019-01-02T10:20:48.600Z,21.12
2019-01-02T10:21:57.804Z,21.22
2019-01-02T10:23:06.743Z,21.13
2019-01-02T10:24:16.443Z,21.22
2019-01-02T10:25:25.652Z,21.24
2019-01-02T10:26:34.587Z,21.25
2019-01-02T10:27:43.766Z,21.27
2019-01-02T10:28:53.227Z,21.27
2019-01-02T10:30:02.669Z,21.24
2019-01-02T10:31:12.330Z,21.25
2019-01-02T10:32:21.762Z,21.31
2019-01-02T10:33:31.188Z,21.28
2019-01-02T10:34:40.878Z,21.29
2019-01-02T10:35:49.812Z,21.28
2019-01-02T10:36:58.998Z,21.27
2019-01-02T10:38:08.166Z,21.28
2019-01-02T10:39:17.364Z,21.32
2019-01-02T10:40:27.131Z,21.22
2019-01-02T10:41:36.092Z,21.34
2019-01-02T10:42:45.529Z,21.31
2019-01-02T10:43:55.227Z,21.27
2019-01-02T10:45:04.171Z,21.22
2019-01-02T10:46:14.147Z,21.28
2019-01-02T10:47:23.110Z,21.32
2019-01-02T10:48:32.791Z,21.28
2019-01-02T10:49:42.217Z,21.29
2019-01-02T10:50:51.668Z,21.19
2019-01-02T10:52:01.072Z,21.24
2019-01-02T10:53:10.751Z,21.27
2019-01-02T10:54:19.928Z,21.22
2019-01-02T10:55:28.899Z,21.27
2019-01-02T10:56:38.335Z,21.28
2019-01-02T10:57:47.512Z,21.22
2019-01-02T10:58:56.707Z,21.25
2019-01-02T11:00:06.156Z,21.24
2019-01-02T11:01:15.325Z,21.27
2019-01-02T11:02:24.753Z,21.28
2019-01-02T11:03:34.169Z,21.34
2019-01-02T11:04:43.842Z,21.4
2019-01-02T11:05:53.771Z,21.44
2019-01-02T11:07:02.691Z,21.4
2019-01-02T11:08:16.014Z,21.54
2019-01-02T11:09:25.200Z,21.59
2019-01-02T11:10:34.616Z,21.77
2019-01-02T11:11:44.048Z,21.79
2019-01-02T11:12:53.045Z,21.79
2019-01-02T11:14:02.746Z,21.82
2019-01-02T11:15:11.932Z,21.94
2019-01-02T11:16:21.169Z,22.06
2019-01-02T11:17:30.621Z,22.21
2019-01-02T11:18:40.092Z,22.27
2019-01-02T11:19:48.817Z,22.28
2019-01-02T11:20:58.515Z,22.39
2019-01-02T11:22:07.972Z,22.37
2019-01-02T11:23:17.177Z,22.51
2019-01-02T11:24:26.376Z,22.57
2019-01-02T11:25:35.586Z,22.61
2019-01-02T11:26:44.776Z,22.6
2019-01-02T11:27:54.450Z,22.67
2019-01-02T11:29:03.913Z,22.62
2019-01-02T11:30:13.157Z,22.73
2019-01-02T11:31:22.377Z,22.73
2019-01-02T11:32:31.559Z,22.79
2019-01-02T11:33:41.002Z,22.82
2019-01-02T11:34:51.011Z,22.86
2019-01-02T11:36:00.790Z,22.88
2019-01-02T11:37:10.445Z,23
2019-01-02T11:38:19.378Z,23.05
2019-01-02T11:39:28.573Z,23.09
2019-01-02T11:40:37.743Z,23.17
2019-01-02T11:41:46.685Z,23.15
2019-01-02T11:42:56.119Z,23.23
2019-01-02T11:44:05.860Z,23.22
2019-01-02T11:45:15.360Z,23.25
2019-01-02T11:46:24.810Z,23.27
2019-01-02T11:47:34.266Z,23.39
2019-01-02T11:48:43.198Z,23.32
2019-01-02T11:49:51.926Z,23.36
2019-01-02T11:51:01.367Z,23.46
2019-01-02T11:52:11.487Z,23.48
2019-01-02T11:53:22.143Z,23.57
2019-01-02T11:54:31.774Z,23.55
2019-01-02T11:55:40.754Z,23.58
2019-01-02T11:56:49.952Z,23.55
2019-01-02T11:57:59.140Z,23.66
2019-01-02T11:59:08.080Z,23.66
2019-01-02T12:00:17.814Z,23.65
2019-01-02T12:01:26.504Z,23.63
2019-01-02T12:02:38.889Z,23.68
2019-01-02T12:03:48.122Z,23.69
2019-01-02T12:04:57.559Z,23.7
2019-01-02T12:06:06.496Z,23.72
2019-01-02T12:07:15.674Z,23.7
2019-01-02T12:08:24.875Z,23.83
2019-01-02T12:09:34.066Z,23.79
2019-01-02T12:10:43.019Z,23.76
2019-01-02T12:11:52.697Z,23.83
2019-01-02T12:13:02.393Z,23.83
2019-01-02T12:14:12.121Z,23.8
2019-01-02T12:15:21.301Z,23.7
2019-01-02T12:16:30.465Z,23.75
2019-01-02T12:17:39.900Z,23.8
2019-01-02T12:18:49.330Z,23.68
2019-01-02T12:19:58.772Z,23.69
2019-01-02T12:21:07.954Z,23.66
2019-01-02T12:22:18.443Z,23.65
2019-01-02T12:23:27.959Z,23.7
2019-01-02T12:24:36.906Z,23.69
2019-01-02T12:25:46.352Z,23.68
2019-01-02T12:26:55.294Z,23.84
2019-01-02T12:28:04.536Z,23.76
2019-01-02T12:29:13.470Z,23.73
2019-01-02T12:30:23.155Z,23.73
2019-01-02T12:31:32.594Z,23.68
2019-01-02T12:32:42.023Z,23.8
2019-01-02T12:33:51.963Z,23.68
2019-01-02T12:35:00.898Z,23.73
2019-01-02T12:36:10.343Z,23.84
2019-01-02T12:37:19.267Z,23.69
2019-01-02T12:38:28.705Z,23.72
2019-01-02T12:39:37.625Z,23.8
2019-01-02T12:40:46.828Z,23.72
2019-01-02T12:41:56.273Z,23.72
2019-01-02T12:43:04.949Z,23.78
2019-01-02T12:44:14.394Z,23.61
2019-01-02T12:45:23.823Z,23.83
2019-01-02T12:46:33.009Z,23.8
2019-01-02T12:47:42.956Z,23.63
2019-01-02T12:48:52.143Z,23.7
2019-01-02T12:50:03.113Z,23.69
2019-01-02T12:51:12.591Z,23.72
2019-01-02T12:52:21.783Z,23.68
2019-01-02T12:53:30.980Z,23.66
2019-01-02T12:54:39.903Z,23.66
2019-01-02T12:55:49.094Z,23.72
2019-01-02T12:56:58.535Z,23.69
2019-01-02T12:58:07.735Z,23.72
2019-01-02T12:59:17.426Z,23.76
2019-01-02T13:00:26.371Z,23.69
2019-01-02T13:01:36.066Z,23.78
2019-01-02T13:02:45.253Z,23.69
2019-01-02T13:03:54.434Z,23.69
2019-01-02T13:05:03.665Z,23.68
2019-01-02T13:06:12.606Z,23.66
2019-01-02T13:07:22.054Z,23.73
2019-01-02T13:08:31.513Z,23.69
2019-01-02T13:09:40.516Z,23.73
2019-01-02T13:10:49.957Z,23.7
2019-01-02T13:11:58.651Z,23.76
2019-01-02T13:13:08.077Z,23.79
2019-01-02T13:14:18.422Z,23.63
2019-01-02T13:15:27.348Z,23.63
2019-01-02T13:16:36.774Z,23.73
2019-01-02T13:17:46.055Z,23.63
2019-01-02T13:18:55.523Z,23.69
2019-01-02T13:20:05.003Z,23.69
2019-01-02T13:21:14.183Z,23.72
2019-01-02T13:22:23.609Z,23.76
2019-01-02T13:23:33.038Z,23.76
2019-01-02T13:24:42.521Z,23.7
2019-01-02T13:25:51.982Z,23.68
2019-01-02T13:27:01.185Z,23.76
2019-01-02T13:28:10.393Z,23.76
2019-01-02T13:29:19.595Z,23.79
2019-01-02T13:30:29.009Z,23.79
2019-01-02T13:31:38.209Z,23.73
2019-01-02T13:32:47.896Z,23.69
2019-01-02T13:33:57.344Z,23.63
2019-01-02T13:35:06.448Z,23.76
2019-01-02T13:36:16.457Z,23.66
2019-01-02T13:37:25.668Z,23.66
2019-01-02T13:38:35.343Z,23.68
2019-01-02T13:39:45.051Z,23.7
2019-01-02T13:40:54.489Z,23.7
2019-01-02T13:42:03.976Z,23.76
2019-01-02T13:43:13.226Z,23.76
2019-01-02T13:44:22.942Z,23.76
2019-01-02T13:45:32.397Z,23.7
2019-01-02T13:46:41.660Z,23.83
2019-01-02T13:47:50.894Z,23.87
2019-01-02T13:49:00.100Z,23.76
2019-01-02T13:50:09.584Z,23.87
2019-01-02T13:51:18.757Z,23.87
2019-01-02T13:52:27.987Z,23.79
2019-01-02T13:53:37.440Z,23.79
2019-01-02T13:54:46.622Z,23.72
2019-01-02T13:55:57.180Z,23.75
2019-01-02T13:57:06.896Z,23.72
2019-01-02T13:58:15.832Z,23.73
2019-01-02T13:59:24.754Z,23.8
2019-01-02T14:00:33.943Z,23.78
2019-01-02T14:01:43.129Z,23.88
2019-01-02T14:02:52.321Z,23.83
2019-01-02T14:04:01.762Z,23.76
2019-01-02T14:05:11.191Z,23.79
2019-01-02T14:06:20.614Z,23.85
2019-01-02T14:07:29.812Z,23.8
2019-01-02T14:08:39.008Z,23.83
2019-01-02T14:09:48.701Z,23.84
2019-01-02T14:10:57.626Z,23.83
2019-01-02T14:12:06.805Z,23.85
2019-01-02T14:13:16.010Z,23.87
2019-01-02T14:14:25.191Z,23.84
2019-01-02T14:15:34.619Z,23.87
2019-01-02T14:16:44.302Z,23.8
2019-01-02T14:17:53.755Z,23.85
2019-01-02T14:19:03.191Z,23.95
2019-01-02T14:20:12.877Z,23.85
2019-01-02T14:21:22.079Z,23.95
2019-01-02T14:22:31.270Z,23.95
2019-01-02T14:23:40.468Z,23.94
2019-01-02T14:24:49.909Z,23.83
2019-01-02T14:25:58.848Z,23.84
2019-01-02T14:27:08.036Z,23.88
2019-01-02T14:28:17.212Z,23.88
2019-01-02T14:29:26.911Z,23.9
2019-01-02T14:30:36.354Z,23.98
2019-01-02T14:31:45.292Z,23.84
2019-01-02T14:32:54.737Z,23.88
2019-01-02T14:34:04.415Z,23.93
2019-01-02T14:35:13.637Z,23.95
2019-01-02T14:36:29.502Z,23.93
2019-01-02T14:37:38.931Z,23.97
2019-01-02T14:38:48.136Z,23.91
2019-01-02T14:39:57.836Z,23.95
2019-01-02T14:41:07.028Z,23.88
2019-01-02T14:42:16.719Z,23.93
2019-01-02T14:43:25.918Z,23.93
2019-01-02T14:44:34.845Z,23.93
2019-01-02T14:45:43.774Z,23.93
2019-01-02T14:46:55.179Z,23.87
2019-01-02T14:48:04.390Z,23.93
2019-01-02T14:49:13.830Z,23.93
2019-01-02T14:50:23.271Z,23.95
2019-01-02T14:51:32.928Z,23.95
2019-01-02T14:52:47.878Z,23.93
2019-01-02T14:53:57.322Z,23.87
2019-01-02T14:55:07.023Z,23.94
2019-01-02T14:56:16.220Z,23.97
2019-01-02T14:57:25.667Z,23.93
2019-01-02T14:58:35.126Z,23.91